KDQH

Douglas Municipal Airport

Douglas, Georgia, USA
METAR KDQH 151935Z AUTO 29007KT 10SM OVC110 12/05 A3007 RMK AO2
Observed Flight Rules
Dec-15 @ 19:35 UTC (21 minutes ago) Visual Flight Rules
Wind Visibility Clouds
290° at 7 knots 10 miles
  • Overcast at 11,000' AGL
Temperatures Readings
Current 12°C / 54°F
Dewpoint 5°C / 41°F
Humidity 63%
Altimeter 30.07" Hg
Pressure 1018 hPa
Elevation 78
METAR KDQH 151935Z AUTO 29007KT 10SM OVC110 12/05 A3007 RMK AO2
Observed Flight Rules
Dec-15 @ 19:35 UTC
(21 minutes ago)
VFR
Wind Visibility
290° at 7 knots 10 miles
Clouds
  • Overcast at 11,000' AGL
Temperature Dewpoint
12°C / 54°F 5°C / 41°F
Humidity Altimeter Pressure
63% 30.07" Hg 1018 hPa